Time;durP1;ratioP1;P1;durP2;ratioP2;P2;SDS_P1;SDS_P2;PMS_P1;PMS_P2;Temp;Humidity;BMP_temperature;BMP_pressure;BME280_temperature;BME280_humidity;BME280_pressure;Samples;Min_cycle;Max_cycle;Signal;HPM_P1;HPM_P2
2023/05/02 00:00:26;;;;;;;10.93;4.55;;;10.40;89.00;;;;;;5019141;28;20037;-83
2023/05/02 00:02:52;;;;;;;9.82;3.15;;;10.40;89.00;;;;;;5019130;28;20393;-80
2023/05/02 00:05:18;;;;;;;8.07;3.08;;;10.40;88.90;;;;;;5035538;28;20041;-79
2023/05/02 00:07:44;;;;;;;9.30;4.35;;;10.40;88.90;;;;;;5019257;28;20033;-80
2023/05/02 00:10:10;;;;;;;4.75;2.65;;;10.40;88.60;;;;;;5035473;28;20503;-82
2023/05/02 00:12:35;;;;;;;6.40;2.67;;;10.40;88.40;;;;;;5035753;28;20083;-80
2023/05/02 00:15:02;;;;;;;7.53;2.83;;;10.40;88.40;;;;;;5035146;28;20045;-81
2023/05/02 00:17:28;;;;;;;7.40;2.35;;;10.40;88.40;;;;;;5035066;28;20371;-79
2023/05/02 00:19:53;;;;;;;9.95;2.70;;;10.30;88.30;;;;;;5035094;28;20128;-79
2023/05/02 00:22:19;;;;;;;5.60;2.30;;;10.30;88.00;;;;;;5034804;28;20033;-80
2023/05/02 00:24:45;;;;;;;5.18;2.65;;;10.30;88.10;;;;;;5018814;28;20041;-80
2023/05/02 00:27:10;;;;;;;4.85;2.00;;;10.20;87.80;;;;;;5035173;28;20426;-79
2023/05/02 00:29:36;;;;;;;3.45;2.20;;;10.30;87.50;;;;;;5018500;28;20044;-79
2023/05/02 00:32:02;;;;;;;7.25;2.13;;;10.20;87.30;;;;;;5018680;28;20047;-79
2023/05/02 00:34:31;;;;;;;4.72;1.95;;;10.20;87.20;;;;;;5035062;28;20498;-83
2023/05/02 00:36:57;;;;;;;5.30;2.03;;;10.30;87.00;;;;;;5034552;28;20178;-82
2023/05/02 00:39:23;;;;;;;5.03;1.70;;;10.30;86.70;;;;;;5018576;28;20064;-80
2023/05/02 00:41:54;;;;;;;4.93;1.90;;;10.20;86.70;;;;;;5034943;28;20045;-80
2023/05/02 00:44:21;;;;;;;5.72;2.53;;;10.20;86.30;;;;;;5035232;28;20041;-81
2023/05/02 00:46:47;;;;;;;3.85;1.90;;;10.20;86.30;;;;;;5034798;28;20049;-83
2023/05/02 00:49:12;;;;;;;5.72;2.45;;;10.20;86.20;;;;;;5034640;28;20116;-80
2023/05/02 00:51:39;;;;;;;4.03;2.42;;;10.20;86.40;;;;;;5034650;28;20092;-79
2023/05/02 00:54:05;;;;;;;8.45;2.90;;;10.30;86.40;;;;;;5034235;28;20500;-80
2023/05/02 00:56:31;;;;;;;7.88;3.60;;;10.30;86.50;;;;;;5034237;28;20053;-81
2023/05/02 00:58:57;;;;;;;13.13;4.63;;;10.30;86.60;;;;;;5034568;28;20478;-80
2023/05/02 01:01:35;;;;;;;14.05;4.40;;;10.20;87.00;;;;;;5034307;28;20543;-82
2023/05/02 01:04:29;;;;;;;12.20;3.70;;;10.30;87.20;;;;;;5034357;28;20041;-81
2023/05/02 01:07:03;;;;;;;18.98;4.82;;;10.30;87.80;;;;;;5034605;28;20358;-81
2023/05/02 01:09:46;;;;;;;13.63;3.67;;;10.30;87.00;;;;;;5034516;28;20041;-79
2023/05/02 01:12:17;;;;;;;13.38;4.20;;;10.20;87.20;;;;;;5034055;28;20107;-80
2023/05/02 01:14:49;;;;;;;13.65;4.47;;;10.10;86.90;;;;;;5034416;28;20698;-81
2023/05/02 01:17:18;;;;;;;15.85;4.63;;;10.00;87.00;;;;;;5033992;28;20063;-81
2023/05/02 01:19:57;;;;;;;14.75;4.60;;;10.00;87.00;;;;;;5034028;28;20041;-80
2023/05/02 01:22:30;;;;;;;15.10;3.97;;;10.00;86.90;;;;;;5033890;28;20091;-80
2023/05/02 01:25:08;;;;;;;22.42;5.90;;;10.00;87.00;;;;;;5034057;28;20041;-79
2023/05/02 01:27:56;;;;;;;16.40;5.00;;;9.90;86.80;;;;;;5017281;28;20048;-80
2023/05/02 01:30:23;;;;;;;20.00;4.57;;;9.90;86.60;;;;;;5016475;28;20133;-81
2023/05/02 01:32:51;;;;;;;11.23;4.22;;;9.90;86.30;;;;;;5016919;28;20046;-82
2023/05/02 01:35:19;;;;;;;13.80;3.85;;;9.80;86.20;;;;;;5033437;28;20076;-83
2023/05/02 01:37:47;;;;;;;13.23;4.97;;;9.70;85.90;;;;;;5017081;28;20108;-80
2023/05/02 01:40:16;;;;;;;13.95;4.05;;;9.70;85.90;;;;;;5017064;28;20037;-81
2023/05/02 01:42:45;;;;;;;12.80;4.15;;;9.70;85.90;;;;;;5033572;28;20079;-80
2023/05/02 01:45:11;;;;;;;12.75;4.40;;;9.70;85.60;;;;;;5033615;28;20041;-82
2023/05/02 01:47:40;;;;;;;21.75;6.07;;;9.70;85.30;;;;;;5033610;28;20489;-79
2023/05/02 01:50:08;;;;;;;15.95;4.63;;;9.60;85.40;;;;;;5017194;28;20055;-80
2023/05/02 01:52:36;;;;;;;14.40;4.43;;;9.50;85.50;;;;;;5033973;28;20064;-80
2023/05/02 01:55:03;;;;;;;16.00;3.60;;;9.60;85.40;;;;;;5033152;28;20083;-82
2023/05/02 01:57:30;;;;;;;12.50;5.13;;;9.60;85.00;;;;;;5032819;28;20103;-80
2023/05/02 01:59:58;;;;;;;17.45;3.95;;;9.50;84.40;;;;;;5033315;28;20092;-81
2023/05/02 02:02:26;;;;;;;19.70;6.38;;;9.50;84.50;;;;;;5017075;28;20038;-80
2023/05/02 02:04:56;;;;;;;14.93;4.60;;;9.50;84.50;;;;;;5016762;28;20121;-81
2023/05/02 02:07:22;;;;;;;13.77;4.47;;;9.50;84.40;;;;;;5016701;28;20128;-79
2023/05/02 02:09:48;;;;;;;14.60;4.82;;;9.50;84.30;;;;;;5033121;28;20084;-82
2023/05/02 02:12:23;;;;;;;20.38;4.82;;;9.40;84.50;;;;;;5016709;28;20072;-83
2023/05/02 02:15:27;;;;;;;19.00;5.93;;;9.40;84.40;;;;;;5033576;28;20049;-81
2023/05/02 02:18:13;;;;;;;12.95;4.18;;;9.40;84.10;;;;;;5022485;28;20045;-82
2023/05/02 02:20:42;;;;;;;17.30;5.03;;;9.40;84.50;;;;;;5016716;28;20044;-82
2023/05/02 02:23:10;;;;;;;16.60;4.82;;;9.30;84.30;;;;;;5032819;28;20520;-81
2023/05/02 02:25:37;;;;;;;18.95;4.63;;;9.30;83.50;;;;;;5032860;28;20048;-81
2023/05/02 02:28:03;;;;;;;18.90;5.80;;;9.30;83.00;;;;;;5033310;28;20041;-81
2023/05/02 02:30:28;;;;;;;13.82;4.10;;;9.30;82.80;;;;;;5016429;28;20041;-81
2023/05/02 02:32:54;;;;;;;19.92;4.45;;;9.10;82.50;;;;;;5016454;28;20045;-83
2023/05/02 02:35:21;;;;;;;14.98;4.18;;;9.10;82.30;;;;;;5033187;28;20087;-81
2023/05/02 02:37:58;;;;;;;15.75;3.50;;;9.10;82.40;;;;;;5032730;28;20041;-81
2023/05/02 02:40:26;;;;;;;12.23;3.70;;;9.10;82.30;;;;;;5032912;28;20045;-80
2023/05/02 02:43:11;;;;;;;11.18;3.95;;;9.00;82.30;;;;;;5016319;28;20102;-82
2023/05/02 02:45:56;;;;;;;10.50;3.83;;;9.00;82.00;;;;;;5032710;28;20045;-83
2023/05/02 02:48:48;;;;;;;10.90;4.07;;;9.00;82.00;;;;;;5032720;28;20505;-82
2023/05/02 02:51:19;;;;;;;14.25;3.60;;;9.00;81.90;;;;;;5033455;28;20111;-82
2023/05/02 02:54:00;;;;;;;12.05;3.85;;;9.00;81.70;;;;;;5033360;28;20072;-81
2023/05/02 02:56:33;;;;;;;12.10;4.20;;;9.00;81.90;;;;;;5033039;28;20124;-82
2023/05/02 02:59:27;;;;;;;19.50;6.88;;;9.10;81.90;;;;;;5033002;28;20076;-78
2023/05/02 03:02:04;;;;;;;14.00;3.83;;;9.00;82.40;;;;;;5042760;28;20062;-79
2023/05/02 03:04:32;;;;;;;18.00;4.50;;;9.00;83.30;;;;;;5058320;28;20029;-82
2023/05/02 03:06:59;;;;;;;14.35;4.60;;;8.90;83.40;;;;;;5058021;28;20025;-80
2023/05/02 03:09:32;;;;;;;16.17;4.25;;;8.90;83.70;;;;;;5057639;28;20085;-79
2023/05/02 03:11:58;;;;;;;15.75;4.22;;;8.80;83.90;;;;;;5053044;28;20061;-81
2023/05/02 03:14:23;;;;;;;14.57;3.65;;;8.80;84.00;;;;;;5052170;28;20052;-80
2023/05/02 03:16:49;;;;;;;10.88;3.20;;;8.80;83.90;;;;;;5051725;28;20045;-84
2023/05/02 03:19:15;;;;;;;13.88;3.65;;;8.80;83.30;;;;;;5037565;28;20041;-79
2023/05/02 03:21:42;;;;;;;14.88;3.75;;;8.80;82.70;;;;;;5016190;28;20037;-80
2023/05/02 03:24:07;;;;;;;13.05;3.17;;;8.80;82.70;;;;;;5032437;28;20056;-79
2023/05/02 03:26:33;;;;;;;11.38;3.78;;;8.70;82.70;;;;;;5032232;28;20392;-81
2023/05/02 03:28:59;;;;;;;14.00;4.22;;;8.70;82.70;;;;;;5016050;28;20048;-80
2023/05/02 03:31:24;;;;;;;12.00;3.30;;;8.70;82.50;;;;;;5032329;28;20045;-80
2023/05/02 03:33:50;;;;;;;12.73;2.75;;;8.70;82.10;;;;;;5015766;28;20049;-81
2023/05/02 03:36:16;;;;;;;12.57;2.80;;;8.70;81.80;;;;;;5032271;28;20052;-79
2023/05/02 03:38:42;;;;;;;11.85;3.03;;;8.70;81.50;;;;;;5032392;28;20469;-82
2023/05/02 03:41:08;;;;;;;9.25;3.38;;;8.70;81.40;;;;;;5031982;28;20088;-79
2023/05/02 03:43:34;;;;;;;7.43;3.00;;;8.60;81.50;;;;;;5032455;28;20077;-82
2023/05/02 03:46:06;;;;;;;13.68;3.40;;;8.70;81.20;;;;;;5032008;28;20045;-81
2023/05/02 03:48:33;;;;;;;9.50;3.35;;;8.60;81.00;;;;;;5015552;28;20037;-80
2023/05/02 03:50:58;;;;;;;12.15;3.50;;;8.60;80.80;;;;;;5031986;28;20041;-82
2023/05/02 03:53:24;;;;;;;11.15;3.03;;;8.60;81.20;;;;;;5033474;28;20040;-80
2023/05/02 03:55:50;;;;;;;9.18;2.47;;;8.60;81.10;;;;;;5035559;28;20498;-79
2023/05/02 03:58:16;;;;;;;8.65;2.20;;;8.60;80.80;;;;;;5035855;28;20123;-82
2023/05/02 04:00:41;;;;;;;11.68;2.50;;;8.70;79.20;;;;;;5036586;28;20042;-81
2023/05/02 04:03:07;;;;;;;6.05;2.05;;;8.70;78.70;;;;;;5035390;28;20096;-82
2023/05/02 04:05:33;;;;;;;6.65;2.00;;;8.60;78.60;;;;;;5018872;28;20048;-80
2023/05/02 04:08:01;;;;;;;8.98;2.10;;;8.60;78.90;;;;;;5035153;28;20060;-83
2023/05/02 04:10:27;;;;;;;6.68;2.28;;;8.60;78.50;;;;;;5018705;28;20048;-79
2023/05/02 04:12:53;;;;;;;7.35;2.30;;;8.50;78.70;;;;;;5034615;28;20041;-82
2023/05/02 04:15:19;;;;;;;8.68;2.45;;;8.50;78.30;;;;;;5018947;28;20051;-82
2023/05/02 04:17:45;;;;;;;8.32;3.33;;;8.50;78.50;;;;;;5018668;28;20601;-81
2023/05/02 04:20:11;;;;;;;6.85;2.17;;;8.40;78.40;;;;;;5018600;28;20092;-83
2023/05/02 04:22:38;;;;;;;8.48;2.30;;;8.40;78.10;;;;;;5035584;28;20087;-81
2023/05/02 04:25:05;;;;;;;3.53;1.90;;;8.40;77.40;;;;;;5034935;28;20045;-82
2023/05/02 04:27:31;;;;;;;8.18;2.25;;;8.40;77.20;;;;;;5034951;28;20041;-81
2023/05/02 04:29:57;;;;;;;6.15;2.47;;;8.40;77.20;;;;;;5035506;28;20067;-81
2023/05/02 04:32:23;;;;;;;6.63;2.13;;;8.30;76.90;;;;;;5018637;28;20168;-80
2023/05/02 04:34:49;;;;;;;8.63;1.95;;;8.30;76.70;;;;;;5018408;28;20128;-80
2023/05/02 04:37:15;;;;;;;6.10;1.95;;;8.30;76.50;;;;;;5007528;28;20608;-80
2023/05/02 04:39:41;;;;;;;7.43;3.03;;;8.30;76.20;;;;;;5015101;28;20172;-80
2023/05/02 04:42:06;;;;;;;8.73;1.73;;;8.30;76.30;;;;;;5014950;28;20075;-81
2023/05/02 04:44:32;;;;;;;4.97;1.95;;;8.20;75.90;;;;;;4998561;28;20042;-79
2023/05/02 04:46:58;;;;;;;6.00;1.90;;;8.30;75.50;;;;;;4998603;28;20121;-79
2023/05/02 04:49:23;;;;;;;5.50;2.28;;;8.30;74.60;;;;;;4998778;28;20133;-81
2023/05/02 04:51:51;;;;;;;9.80;2.97;;;8.30;74.80;;;;;;4998959;28;20474;-79
2023/05/02 04:54:17;;;;;;;7.18;2.10;;;8.40;74.40;;;;;;5015023;28;20406;-81
2023/05/02 04:56:43;;;;;;;7.63;2.78;;;8.40;73.80;;;;;;4998059;28;20050;-81
2023/05/02 04:59:10;;;;;;;8.70;2.08;;;8.40;73.10;;;;;;5014480;28;20046;-80
2023/05/02 05:01:35;;;;;;;8.38;1.98;;;8.40;72.00;;;;;;4998505;28;20037;-83
2023/05/02 05:04:02;;;;;;;8.35;2.58;;;8.40;71.80;;;;;;4998230;28;20049;-82
2023/05/02 05:06:28;;;;;;;7.82;2.88;;;8.40;72.30;;;;;;5014243;28;20133;-82
2023/05/02 05:08:53;;;;;;;6.07;2.05;;;8.50;71.80;;;;;;5014783;28;20073;-82
2023/05/02 05:11:19;;;;;;;6.28;2.45;;;8.50;71.10;;;;;;5014225;28;20077;-82
2023/05/02 05:13:45;;;;;;;4.97;1.58;;;8.40;70.40;;;;;;5014151;28;20038;-81
2023/05/02 05:16:10;;;;;;;7.10;1.90;;;8.30;71.00;;;;;;5013920;28;20387;-81
2023/05/02 05:18:39;;;;;;;7.85;1.80;;;8.30;71.70;;;;;;5014340;28;20042;-81
2023/05/02 05:21:09;;;;;;;3.20;1.73;;;8.30;71.70;;;;;;5014298;28;20064;-80
2023/05/02 05:23:36;;;;;;;5.30;1.90;;;8.30;70.70;;;;;;5014255;28;20072;-82
2023/05/02 05:26:12;;;;;;;6.93;1.80;;;8.30;70.70;;;;;;5013864;28;20046;-80
2023/05/02 05:28:41;;;;;;;5.20;1.90;;;8.30;70.40;;;;;;4997992;28;20041;-81
2023/05/02 05:31:08;;;;;;;12.55;2.17;;;8.30;70.80;;;;;;5013755;28;20050;-81
2023/05/02 05:33:34;;;;;;;7.05;2.40;;;8.30;70.80;;;;;;5013863;28;20046;-82
2023/05/02 05:36:05;;;;;;;6.47;2.10;;;8.30;70.30;;;;;;5013351;28;20120;-81
2023/05/02 05:38:31;;;;;;;8.50;2.10;;;8.30;70.20;;;;;;5013607;28;20037;-79
2023/05/02 05:40:56;;;;;;;5.82;2.65;;;8.30;70.60;;;;;;5014596;28;20038;-83
2023/05/02 05:43:22;;;;;;;10.82;2.80;;;8.30;70.70;;;;;;5013466;28;20486;-80
2023/05/02 05:45:51;;;;;;;8.10;2.13;;;8.30;70.90;;;;;;4981266;28;20073;-79
2023/05/02 05:48:16;;;;;;;5.93;2.05;;;8.30;71.10;;;;;;5013643;28;20440;-81
2023/05/02 05:50:42;;;;;;;7.07;1.92;;;8.30;71.20;;;;;;4996999;28;20042;-80
2023/05/02 05:53:08;;;;;;;6.70;2.40;;;8.40;70.30;;;;;;4997084;28;20042;-82
2023/05/02 05:55:34;;;;;;;6.45;2.10;;;8.40;70.30;;;;;;5013283;28;20044;-81
2023/05/02 05:57:59;;;;;;;9.82;2.45;;;8.50;70.30;;;;;;4997220;28;20126;-83
2023/05/02 06:00:25;;;;;;;5.63;2.40;;;8.40;69.50;;;;;;4997150;28;20038;-81
2023/05/02 06:02:51;;;;;;;9.63;2.58;;;8.50;69.40;;;;;;4980853;28;20046;-80
2023/05/02 06:05:16;;;;;;;9.65;2.28;;;8.50;69.90;;;;;;5013319;28;20049;-81
2023/05/02 06:07:42;;;;;;;9.57;2.55;;;8.60;69.90;;;;;;4996898;28;20038;-82
2023/05/02 06:10:08;;;;;;;5.57;2.35;;;8.60;70.40;;;;;;4996754;28;20544;-81
2023/05/02 06:12:34;;;;;;;7.20;2.80;;;8.60;70.10;;;;;;5013238;28;20042;-80
2023/05/02 06:15:00;;;;;;;12.73;3.80;;;8.60;69.30;;;;;;5013031;28;20482;-81
2023/05/02 06:17:26;;;;;;;11.73;3.45;;;8.70;69.00;;;;;;4996310;28;20038;-81
2023/05/02 06:19:52;;;;;;;5.55;2.22;;;8.70;67.80;;;;;;5013243;28;20053;-81
2023/05/02 06:22:17;;;;;;;8.77;2.50;;;8.70;68.10;;;;;;4996680;28;20494;-79
2023/05/02 06:24:43;;;;;;;7.53;2.85;;;8.70;67.90;;;;;;4996563;28;20069;-82
2023/05/02 06:27:09;;;;;;;12.70;2.95;;;8.80;67.70;;;;;;4996609;28;20092;-83
2023/05/02 06:29:35;;;;;;;6.93;2.75;;;8.80;67.50;;;;;;5013131;28;20462;-82
2023/05/02 06:32:01;;;;;;;4.68;2.55;;;8.80;67.60;;;;;;4996430;28;20120;-80
2023/05/02 06:34:27;;;;;;;10.32;2.25;;;8.90;66.20;;;;;;5012736;28;20046;-79
2023/05/02 06:36:55;;;;;;;7.07;2.20;;;8.90;66.30;;;;;;5012736;28;20502;-80
2023/05/02 06:39:21;;;;;;;8.77;2.17;;;8.80;65.90;;;;;;4996324;28;20375;-79
2023/05/02 06:41:50;;;;;;;9.65;2.40;;;8.90;66.00;;;;;;5012691;28;20048;-80
2023/05/02 06:44:15;;;;;;;7.68;2.97;;;8.90;66.00;;;;;;5012538;28;20041;-80
2023/05/02 06:46:42;;;;;;;14.35;3.15;;;9.00;64.80;;;;;;5012424;28;20128;-80
2023/05/02 06:49:08;;;;;;;6.03;2.53;;;9.00;65.70;;;;;;5012495;28;20524;-82
2023/05/02 06:51:33;;;;;;;9.95;2.67;;;9.00;66.70;;;;;;4996498;28;20041;-82
2023/05/02 06:53:59;;;;;;;7.43;2.95;;;9.10;68.40;;;;;;5012748;28;20095;-81
2023/05/02 06:56:25;;;;;;;10.90;2.95;;;9.10;68.00;;;;;;4996128;28;20491;-82
2023/05/02 06:58:51;;;;;;;7.53;2.72;;;9.10;68.30;;;;;;5012687;28;20559;-82
2023/05/02 07:01:17;;;;;;;7.93;2.50;;;9.10;69.00;;;;;;5012730;28;20030;-80
2023/05/02 07:03:43;;;;;;;11.00;3.05;;;9.10;68.80;;;;;;4996126;28;20486;-82
2023/05/02 07:06:08;;;;;;;9.05;2.67;;;9.10;69.40;;;;;;5012701;28;20050;-82
2023/05/02 07:08:34;;;;;;;8.23;2.30;;;9.10;68.80;;;;;;5012784;28;20154;-82
2023/05/02 07:11:01;;;;;;;10.48;2.47;;;9.10;69.30;;;;;;4996244;28;20049;-81
2023/05/02 07:13:27;;;;;;;13.15;3.15;;;9.10;69.10;;;;;;5012392;28;20045;-81
2023/05/02 07:15:53;;;;;;;8.20;2.90;;;9.20;68.60;;;;;;5012594;28;20038;-81
2023/05/02 07:18:19;;;;;;;6.15;2.83;;;9.20;69.00;;;;;;5012273;28;20494;-79
2023/05/02 07:20:44;;;;;;;8.80;2.65;;;9.30;69.20;;;;;;5012358;28;20045;-80
2023/05/02 07:23:10;;;;;;;7.50;2.50;;;9.40;69.90;;;;;;4996604;28;20041;-83
2023/05/02 07:25:36;;;;;;;10.60;2.92;;;9.50;69.00;;;;;;5013089;28;20057;-81
2023/05/02 07:28:02;;;;;;;7.93;2.72;;;9.50;68.90;;;;;;5013238;28;20042;-82
2023/05/02 07:30:30;;;;;;;7.00;2.10;;;9.50;69.30;;;;;;5000465;28;20088;-81
2023/05/02 07:32:56;;;;;;;7.88;2.63;;;9.50;69.80;;;;;;4983799;28;20077;-82
2023/05/02 07:35:22;;;;;;;10.57;2.60;;;9.50;69.40;;;;;;5016219;28;20073;-81
2023/05/02 07:37:48;;;;;;;10.48;2.28;;;9.50;69.10;;;;;;5015953;28;20044;-81
2023/05/02 07:40:13;;;;;;;13.63;3.83;;;9.50;68.80;;;;;;4999944;28;20073;-81
2023/05/02 07:42:43;;;;;;;8.50;2.50;;;9.40;68.30;;;;;;4999894;28;20068;-82
2023/05/02 07:45:09;;;;;;;6.10;2.45;;;9.40;68.60;;;;;;5016223;28;20045;-82
2023/05/02 07:47:35;;;;;;;6.80;2.40;;;9.50;69.10;;;;;;5015682;28;20037;-82
2023/05/02 07:50:03;;;;;;;7.05;2.58;;;9.50;68.80;;;;;;4999566;28;20041;-81
2023/05/02 07:52:29;;;;;;;9.45;2.95;;;9.50;68.40;;;;;;5015703;28;20038;-81
2023/05/02 07:54:55;;;;;;;6.78;2.42;;;9.60;68.50;;;;;;5015564;28;20129;-82
2023/05/02 07:57:21;;;;;;;5.10;2.45;;;9.60;67.50;;;;;;5014960;28;20129;-79
2023/05/02 07:59:46;;;;;;;13.10;2.90;;;9.60;67.20;;;;;;5015499;28;20460;-83
2023/05/02 08:02:12;;;;;;;7.07;2.20;;;9.60;66.60;;;;;;4999460;28;20085;-80
2023/05/02 08:04:39;;;;;;;8.65;3.38;;;9.70;65.10;;;;;;4999153;28;20132;-81
2023/05/02 08:07:04;;;;;;;5.60;1.73;;;9.80;65.20;;;;;;5015115;28;20125;-80
2023/05/02 08:09:30;;;;;;;7.03;1.98;;;9.80;65.20;;;;;;5015634;28;20207;-82
2023/05/02 08:11:56;;;;;;;7.55;2.15;;;9.90;64.50;;;;;;5015203;28;20042;-82
2023/05/02 08:14:22;;;;;;;8.05;2.28;;;9.90;63.90;;;;;;5015032;28;20046;-80
2023/05/02 08:16:48;;;;;;;9.15;2.08;;;9.90;63.90;;;;;;4999292;28;20141;-83
2023/05/02 08:19:14;;;;;;;3.78;1.63;;;9.90;63.20;;;;;;4982732;28;20036;-82
2023/05/02 08:21:41;;;;;;;4.82;1.55;;;9.90;63.10;;;;;;4997923;28;20045;-82
2023/05/02 08:24:06;;;;;;;3.13;1.60;;;9.90;63.00;;;;;;4963122;28;20129;-81
2023/05/02 08:26:32;;;;;;;5.75;1.63;;;9.70;61.90;;;;;;4984023;28;20128;-79
2023/05/02 08:28:58;;;;;;;7.22;2.20;;;9.60;62.30;;;;;;4972782;28;20050;-81
2023/05/02 08:31:24;;;;;;;3.72;1.40;;;9.70;63.20;;;;;;4998912;28;20042;-80
2023/05/02 08:33:50;;;;;;;3.17;1.35;;;9.70;62.00;;;;;;4998504;28;20391;-82
2023/05/02 08:36:19;;;;;;;2.83;1.25;;;9.70;60.90;;;;;;4999249;28;20073;-82
2023/05/02 08:38:46;;;;;;;7.35;1.85;;;9.60;60.30;;;;;;5014825;28;20060;-82
2023/05/02 08:41:16;;;;;;;4.60;1.40;;;9.70;61.10;;;;;;5014912;28;20049;-82
2023/05/02 08:43:43;;;;;;;5.05;1.08;;;9.80;60.60;;;;;;5014957;28;20646;-82
2023/05/02 08:46:10;;;;;;;7.40;3.13;;;9.70;59.80;;;;;;4998203;28;20057;-84
2023/05/02 08:48:41;;;;;;;2.60;1.30;;;9.80;60.00;;;;;;5014625;28;20052;-81
2023/05/02 08:51:12;;;;;;;4.78;2.22;;;9.90;61.50;;;;;;4998425;28;20038;-81
2023/05/02 08:53:39;;;;;;;8.63;1.42;;;10.00;62.20;;;;;;4997913;28;20574;-80
2023/05/02 08:56:10;;;;;;;3.58;1.40;;;10.10;62.50;;;;;;5014417;28;20095;-82
2023/05/02 08:58:40;;;;;;;4.45;1.38;;;10.10;62.20;;;;;;5014417;28;20042;-81
2023/05/02 09:01:14;;;;;;;6.85;1.60;;;10.10;60.90;;;;;;4998241;28;20390;-81
2023/05/02 09:03:46;;;;;;;2.72;1.30;;;10.10;60.90;;;;;;4998009;28;20038;-81
2023/05/02 09:06:19;;;;;;;3.10;1.73;;;10.10;60.40;;;;;;4997958;28;20046;-80
2023/05/02 09:08:53;;;;;;;3.90;1.65;;;10.10;60.90;;;;;;5014052;28;20132;-81
2023/05/02 09:11:20;;;;;;;5.15;1.58;;;10.10;61.40;;;;;;5013967;28;20056;-79
2023/05/02 09:13:51;;;;;;;3.80;1.35;;;10.20;61.60;;;;;;4997609;28;20038;-79
2023/05/02 09:16:18;;;;;;;4.13;1.27;;;10.20;62.20;;;;;;5014763;28;20378;-81
2023/05/02 09:19:03;;;;;;;7.55;1.95;;;10.30;61.30;;;;;;4997629;28;20040;-82
2023/05/02 09:21:38;;;;;;;5.72;1.35;;;10.40;61.70;;;;;;4997673;28;20403;-82
2023/05/02 09:24:20;;;;;;;3.80;1.00;;;10.60;60.00;;;;;;4997628;28;20042;-81
2023/05/02 09:27:15;;;;;;;4.55;1.35;;;10.60;59.90;;;;;;4998320;28;20546;-81
2023/05/02 09:29:44;;;;;;;;;;;10.70;58.70;;;;;;5005761;28;20133;-80
2023/05/02 09:32:10;;;;;;;5.13;1.45;;;10.70;58.70;;;;;;4997674;28;19917;-80
2023/05/02 09:34:38;;;;;;;5.25;1.40;;;10.80;59.00;;;;;;5013747;28;20100;-80
2023/05/02 09:37:04;;;;;;;4.72;1.10;;;10.90;59.60;;;;;;4997438;28;20444;-79
2023/05/02 09:39:30;;;;;;;5.05;1.15;;;11.00;59.30;;;;;;4997053;28;20045;-81
2023/05/02 09:41:56;;;;;;;5.72;1.80;;;10.90;58.30;;;;;;5013781;28;20390;-81
2023/05/02 09:44:35;;;;;;;3.25;1.27;;;10.90;58.30;;;;;;5013502;28;20045;-80
2023/05/02 09:47:01;;;;;;;4.80;1.45;;;10.90;58.20;;;;;;4997644;28;20045;-83
2023/05/02 09:49:41;;;;;;;3.20;1.05;;;10.90;58.10;;;;;;4997210;28;20096;-79
2023/05/02 09:52:12;;;;;;;8.10;1.42;;;10.90;59.40;;;;;;4997068;28;20450;-80
2023/05/02 09:54:37;;;;;;;3.30;1.08;;;11.00;60.10;;;;;;4997059;28;20157;-82
2023/05/02 09:57:05;;;;;;;5.60;2.13;;;11.10;59.30;;;;;;4996664;28;20062;-82
2023/05/02 09:59:32;;;;;;;3.70;1.23;;;11.10;59.90;;;;;;5013863;28;20042;-83
2023/05/02 10:02:00;;;;;;;5.07;1.23;;;11.10;59.90;;;;;;4997028;28;20038;-82
2023/05/02 10:04:27;;;;;;;1.90;0.93;;;11.40;59.70;;;;;;5013299;28;20061;-83
2023/05/02 10:06:54;;;;;;;3.33;1.10;;;11.50;58.90;;;;;;5013306;28;20519;-85
2023/05/02 10:09:32;;;;;;;2.50;1.20;;;11.70;59.30;;;;;;4998439;28;20137;-83
2023/05/02 10:12:05;;;;;;;3.47;1.30;;;12.00;58.90;;;;;;5013047;28;20038;-82
2023/05/02 10:14:47;;;;;;;2.00;1.00;;;12.00;57.20;;;;;;5012962;28;20046;-83
2023/05/02 10:17:24;;;;;;;4.47;1.02;;;12.10;56.70;;;;;;5013052;28;20058;-82
2023/05/02 10:19:59;;;;;;;2.95;1.08;;;12.30;57.30;;;;;;5012893;28;20482;-83
2023/05/02 10:22:25;;;;;;;3.05;1.10;;;12.20;56.60;;;;;;5027241;28;20512;-82
2023/05/02 10:24:52;;;;;;;3.65;1.35;;;12.20;56.70;;;;;;5015879;28;20076;-82
2023/05/02 10:27:18;;;;;;;2.72;1.23;;;12.00;55.90;;;;;;5032167;28;20124;-81
2023/05/02 10:29:45;;;;;;;4.50;1.17;;;12.00;57.10;;;;;;5032803;28;20048;-83
2023/05/02 10:32:13;;;;;;;5.88;2.05;;;11.90;56.90;;;;;;5032787;28;20099;-82
2023/05/02 10:34:40;;;;;;;4.47;1.20;;;11.80;56.90;;;;;;5015912;28;20106;-81
2023/05/02 10:37:06;;;;;;;4.35;1.08;;;11.70;57.50;;;;;;5032341;28;20546;-80
2023/05/02 10:39:32;;;;;;;4.00;1.10;;;11.60;59.20;;;;;;5032668;28;20041;-82
2023/05/02 10:42:03;;;;;;;2.72;1.30;;;11.60;58.70;;;;;;5032119;28;20044;-82
2023/05/02 10:44:37;;;;;;;7.80;1.63;;;11.50;59.50;;;;;;5025857;28;20467;-82
2023/05/02 10:47:20;;;;;;;;;;;11.60;60.40;;;;;;4990313;28;20041;-81
2023/05/02 10:49:54;;;;;;;6.57;1.83;;;11.50;61.30;;;;;;5012313;28;19917;-79
2023/05/02 10:52:34;;;;;;;;;;;11.40;61.70;;;;;;4996422;28;20041;-79
2023/05/02 10:55:16;;;;;;;8.45;1.92;;;11.40;61.90;;;;;;5012162;28;19977;-80
2023/05/02 10:57:57;;;;;;;3.97;1.30;;;11.30;62.60;;;;;;5011915;28;20061;-82
2023/05/02 11:00:28;;;;;;;7.85;2.00;;;11.20;62.80;;;;;;4996080;28;20371;-84
2023/05/02 11:02:54;;;;;;;3.30;1.48;;;11.20;62.80;;;;;;5014718;28;20068;-82
2023/05/02 11:05:22;;;;;;;4.57;1.60;;;11.50;62.60;;;;;;5000104;28;20038;-80
2023/05/02 11:07:49;;;;;;;3.92;1.42;;;12.00;61.30;;;;;;4984169;28;20101;-82
2023/05/02 11:10:18;;;;;;;5.93;1.63;;;12.10;60.00;;;;;;5016449;28;20034;-81
2023/05/02 11:12:54;;;;;;;3.80;1.48;;;12.10;59.20;;;;;;5016481;28;20502;-82
2023/05/02 11:15:26;;;;;;;4.85;2.28;;;12.00;59.00;;;;;;5017482;28;20064;-84
2023/05/02 11:18:00;;;;;;;3.92;1.00;;;11.90;58.70;;;;;;4999932;28;20049;-82
2023/05/02 11:20:26;;;;;;;3.00;1.00;;;12.20;58.20;;;;;;4999680;28;20046;-84
2023/05/02 11:22:53;;;;;;;3.70;1.08;;;12.60;58.40;;;;;;4999740;28;20046;-82
2023/05/02 11:25:29;;;;;;;5.22;1.40;;;12.90;56.90;;;;;;4999730;28;20041;-82
2023/05/02 11:27:55;;;;;;;3.03;1.58;;;12.90;55.60;;;;;;4999768;28;20049;-81
2023/05/02 11:30:38;;;;;;;3.67;1.00;;;12.80;54.40;;;;;;5015940;28;20034;-80
2023/05/02 11:33:04;;;;;;;5.68;1.20;;;12.60;54.30;;;;;;5015911;28;20081;-82
2023/05/02 11:35:30;;;;;;;2.70;1.00;;;12.50;55.70;;;;;;4999784;28;20443;-82
2023/05/02 11:38:00;;;;;;;4.97;1.75;;;12.60;54.70;;;;;;4983348;28;20073;-81
2023/05/02 11:40:27;;;;;;;2.38;1.00;;;12.60;56.70;;;;;;5016098;28;20117;-80
2023/05/02 11:42:53;;;;;;;3.58;1.27;;;12.50;59.30;;;;;;4999637;28;20073;-80
2023/05/02 11:45:20;;;;;;;2.08;0.98;;;12.30;59.50;;;;;;5015763;28;20049;-80
2023/05/02 11:47:47;;;;;;;1.85;1.17;;;12.20;59.30;;;;;;4999361;28;20046;-81
2023/05/02 11:50:13;;;;;;;3.47;0.77;;;12.20;60.30;;;;;;5015602;28;20048;-81
2023/05/02 11:52:44;;;;;;;3.38;1.10;;;12.20;59.20;;;;;;4999850;28;20104;-79
2023/05/02 11:55:11;;;;;;;3.88;1.30;;;12.40;58.70;;;;;;5000075;28;20042;-81
2023/05/02 11:57:38;;;;;;;4.10;1.25;;;12.60;59.20;;;;;;5015530;28;20053;-82
2023/05/02 12:00:05;;;;;;;3.70;1.33;;;12.70;56.70;;;;;;5015843;28;20046;-82
2023/05/02 12:02:38;;;;;;;4.70;1.13;;;12.80;57.20;;;;;;4999044;28;20033;-80
2023/05/02 12:05:06;;;;;;;4.15;1.20;;;13.00;56.60;;;;;;4999757;28;20060;-80
2023/05/02 12:07:41;;;;;;;2.83;0.85;;;13.30;56.60;;;;;;5000684;28;20393;-81
2023/05/02 12:10:07;;;;;;;;;;;13.30;54.50;;;;;;5013260;28;20022;-78
2023/05/02 12:12:33;;;;;;;2.45;1.00;;;13.00;54.40;;;;;;5024736;28;19905;-80
2023/05/02 12:15:06;;;;;;;3.08;1.05;;;12.90;55.30;;;;;;5007983;28;20041;-81
2023/05/02 12:17:36;;;;;;;5.03;1.13;;;12.80;55.40;;;;;;5008340;28;20034;-81
2023/05/02 12:20:03;;;;;;;5.68;1.48;;;12.70;55.60;;;;;;5024927;28;20049;-80
2023/05/02 12:22:30;;;;;;;4.80;1.15;;;12.60;56.60;;;;;;5041272;28;20029;-79
2023/05/02 12:24:56;;;;;;;4.63;1.35;;;12.50;57.70;;;;;;5041065;28;20026;-79
2023/05/02 12:27:22;;;;;;;6.05;2.15;;;12.40;59.20;;;;;;5024376;28;20029;-81
2023/05/02 12:29:48;;;;;;;5.18;1.42;;;12.30;60.70;;;;;;5023791;28;20102;-78
2023/05/02 12:32:25;;;;;;;5.68;1.83;;;12.20;59.80;;;;;;5039149;28;20038;-82
2023/05/02 12:34:51;;;;;;;5.35;1.20;;;12.00;60.30;;;;;;5019199;28;20041;-81
2023/05/02 12:37:23;;;;;;;6.32;1.27;;;12.00;61.50;;;;;;5019193;28;20101;-81
2023/05/02 12:39:49;;;;;;;1.98;0.60;;;12.00;60.20;;;;;;5036158;28;20066;-81
2023/05/02 12:42:16;;;;;;;2.55;0.80;;;12.00;59.30;;;;;;5019171;28;20045;-82
2023/05/02 12:44:44;;;;;;;3.47;0.75;;;12.00;58.40;;;;;;5002213;28;20045;-82
2023/05/02 12:47:15;;;;;;;2.13;0.82;;;12.10;59.40;;;;;;5017456;28;20046;-81
2023/05/02 12:49:58;;;;;;;1.92;0.70;;;12.50;58.90;;;;;;5031453;28;20049;-83
2023/05/02 12:52:46;;;;;;;2.30;0.73;;;12.60;58.10;;;;;;5015075;28;20111;-79
2023/05/02 12:55:19;;;;;;;7.72;1.83;;;12.70;58.40;;;;;;4999680;28;20049;-80
2023/05/02 12:57:45;;;;;;;3.40;0.73;;;12.70;59.30;;;;;;5014293;28;20045;-80